sensor_id;sensor_type;location;lat;lon;timestamp;pressure;altitude;pressure_sealevel;temperature;humidity
80333;BME280;69652;51.864;-2.246;2024-01-15T00:02:09;101126.69;;;4.31;68.67
80333;BME280;69652;51.864;-2.246;2024-01-15T00:04:41;101121.56;;;4.30;68.91
80333;BME280;69652;51.864;-2.246;2024-01-15T00:07:07;101126.13;;;4.29;69.46
80333;BME280;69652;51.864;-2.246;2024-01-15T00:09:33;101124.75;;;4.27;68.83
80333;BME280;69652;51.864;-2.246;2024-01-15T00:11:59;101110.75;;;4.25;69.28
80333;BME280;69652;51.864;-2.246;2024-01-15T00:14:26;101116.38;;;4.23;68.48
80333;BME280;69652;51.864;-2.246;2024-01-15T00:16:51;101108.34;;;4.23;69.13
80333;BME280;69652;51.864;-2.246;2024-01-15T00:19:21;101102.97;;;4.23;68.46
80333;BME280;69652;51.864;-2.246;2024-01-15T00:21:47;101103.44;;;4.20;69.75
80333;BME280;69652;51.864;-2.246;2024-01-15T00:24:12;101098.66;;;4.22;69.68
80333;BME280;69652;51.864;-2.246;2024-01-15T00:26:38;101096.44;;;4.19;69.25
80333;BME280;69652;51.864;-2.246;2024-01-15T00:29:04;101101.59;;;4.21;69.61
80333;BME280;69652;51.864;-2.246;2024-01-15T00:31:29;101098.91;;;4.21;68.83
80333;BME280;69652;51.864;-2.246;2024-01-15T00:33:56;101091.66;;;4.21;69.11
80333;BME280;69652;51.864;-2.246;2024-01-15T00:36:22;101084.81;;;4.14;68.07
80333;BME280;69652;51.864;-2.246;2024-01-15T00:38:48;101092.88;;;4.14;68.97
80333;BME280;69652;51.864;-2.246;2024-01-15T00:41:14;101082.94;;;4.14;69.63
80333;BME280;69652;51.864;-2.246;2024-01-15T00:43:40;101084.81;;;4.14;70.12
80333;BME280;69652;51.864;-2.246;2024-01-15T00:46:06;101081.03;;;4.10;70.62
80333;BME280;69652;51.864;-2.246;2024-01-15T00:48:32;101090.47;;;4.12;69.65
80333;BME280;69652;51.864;-2.246;2024-01-15T00:50:57;101094.50;;;4.15;70.38
80333;BME280;69652;51.864;-2.246;2024-01-15T00:53:23;101083.47;;;4.11;69.91
80333;BME280;69652;51.864;-2.246;2024-01-15T00:55:49;101081.28;;;4.08;71.00
80333;BME280;69652;51.864;-2.246;2024-01-15T00:58:15;101077.22;;;4.06;70.99
80333;BME280;69652;51.864;-2.246;2024-01-15T01:00:41;101080.97;;;4.05;70.68
80333;BME280;69652;51.864;-2.246;2024-01-15T01:03:06;101073.22;;;4.08;70.30
80333;BME280;69652;51.864;-2.246;2024-01-15T01:05:33;101072.41;;;4.08;70.13
80333;BME280;69652;51.864;-2.246;2024-01-15T01:07:59;101082.09;;;4.09;70.02
80333;BME280;69652;51.864;-2.246;2024-01-15T01:10:24;101079.72;;;4.12;70.40
80333;BME280;69652;51.864;-2.246;2024-01-15T01:12:50;101075.94;;;4.13;70.13
80333;BME280;69652;51.864;-2.246;2024-01-15T01:15:16;101079.44;;;4.14;70.25
80333;BME280;69652;51.864;-2.246;2024-01-15T01:17:41;101078.38;;;4.15;70.65
80333;BME280;69652;51.864;-2.246;2024-01-15T01:20:07;101069.28;;;4.16;71.12
80333;BME280;69652;51.864;-2.246;2024-01-15T01:22:34;101069.28;;;4.16;71.12
80333;BME280;69652;51.864;-2.246;2024-01-15T01:25:00;101071.66;;;4.12;71.28
80333;BME280;69652;51.864;-2.246;2024-01-15T01:27:26;101062.81;;;4.12;70.79
80333;BME280;69652;51.864;-2.246;2024-01-15T01:29:51;101060.94;;;4.12;71.20
80333;BME280;69652;51.864;-2.246;2024-01-15T01:32:17;101063.63;;;4.12;72.14
80333;BME280;69652;51.864;-2.246;2024-01-15T01:34:43;101057.91;;;4.09;71.72
80333;BME280;69652;51.864;-2.246;2024-01-15T01:37:12;101050.13;;;4.07;70.80
80333;BME280;69652;51.864;-2.246;2024-01-15T01:39:39;101047.94;;;4.04;71.46
80333;BME280;69652;51.864;-2.246;2024-01-15T01:42:05;101042.25;;;4.01;71.89
80333;BME280;69652;51.864;-2.246;2024-01-15T01:44:30;101046.16;;;3.88;71.35
80333;BME280;69652;51.864;-2.246;2024-01-15T01:46:58;101053.50;;;3.76;71.35
80333;BME280;69652;51.864;-2.246;2024-01-15T01:49:24;101046.44;;;3.70;72.91
80333;BME280;69652;51.864;-2.246;2024-01-15T01:51:50;101049.63;;;3.67;72.78
80333;BME280;69652;51.864;-2.246;2024-01-15T01:54:16;101053.81;;;3.57;73.40
80333;BME280;69652;51.864;-2.246;2024-01-15T01:56:43;101043.84;;;3.53;72.48
80333;BME280;69652;51.864;-2.246;2024-01-15T01:59:10;101046.94;;;3.45;72.87
80333;BME280;69652;51.864;-2.246;2024-01-15T02:01:36;101042.56;;;3.39;72.72
80333;BME280;69652;51.864;-2.246;2024-01-15T02:04:03;101043.28;;;3.34;73.19
80333;BME280;69652;51.864;-2.246;2024-01-15T02:06:29;101042.19;;;3.30;74.07
80333;BME280;69652;51.864;-2.246;2024-01-15T02:08:55;101050.16;;;3.25;74.34
80333;BME280;69652;51.864;-2.246;2024-01-15T02:11:21;101046.16;;;3.28;74.43
80333;BME280;69652;51.864;-2.246;2024-01-15T02:13:46;101053.16;;;3.29;74.15
80333;BME280;69652;51.864;-2.246;2024-01-15T02:16:12;101044.28;;;3.28;74.68
80333;BME280;69652;51.864;-2.246;2024-01-15T02:18:42;101049.09;;;3.26;74.02
80333;BME280;69652;51.864;-2.246;2024-01-15T02:21:08;101041.03;;;3.26;74.47
80333;BME280;69652;51.864;-2.246;2024-01-15T02:23:34;101044.88;;;3.30;74.30
80333;BME280;69652;51.864;-2.246;2024-01-15T02:26:00;101052.41;;;3.33;73.48
80333;BME280;69652;51.864;-2.246;2024-01-15T02:28:26;101059.16;;;3.36;73.67
80333;BME280;69652;51.864;-2.246;2024-01-15T02:30:52;101056.78;;;3.39;72.97
80333;BME280;69652;51.864;-2.246;2024-01-15T02:33:17;101056.47;;;3.36;73.40
80333;BME280;69652;51.864;-2.246;2024-01-15T02:35:43;101057.84;;;3.38;73.72
80333;BME280;69652;51.864;-2.246;2024-01-15T02:38:08;101064.31;;;3.42;74.67
80333;BME280;69652;51.864;-2.246;2024-01-15T02:40:34;101061.16;;;3.45;74.67
80333;BME280;69652;51.864;-2.246;2024-01-15T02:43:00;101059.63;;;3.49;75.12
80333;BME280;69652;51.864;-2.246;2024-01-15T02:45:26;101051.31;;;3.51;74.33
80333;BME280;69652;51.864;-2.246;2024-01-15T02:47:52;101054.00;;;3.51;73.96
80333;BME280;69652;51.864;-2.246;2024-01-15T02:50:17;101044.91;;;3.52;75.03
80333;BME280;69652;51.864;-2.246;2024-01-15T02:52:43;101053.75;;;3.52;73.90
80333;BME280;69652;51.864;-2.246;2024-01-15T02:55:09;101054.00;;;3.51;74.20
80333;BME280;69652;51.864;-2.246;2024-01-15T02:57:35;101049.44;;;3.51;73.95
80333;BME280;69652;51.864;-2.246;2024-01-15T03:00:00;101052.63;;;3.48;75.01
80333;BME280;69652;51.864;-2.246;2024-01-15T03:02:26;101062.28;;;3.49;74.30
80333;BME280;69652;51.864;-2.246;2024-01-15T03:04:51;101053.19;;;3.50;74.48
80333;BME280;69652;51.864;-2.246;2024-01-15T03:07:17;101050.50;;;3.50;74.47
80333;BME280;69652;51.864;-2.246;2024-01-15T03:09:43;101054.56;;;3.53;73.82
80333;BME280;69652;51.864;-2.246;2024-01-15T03:12:08;101059.38;;;3.51;74.06
80333;BME280;69652;51.864;-2.246;2024-01-15T03:14:35;101061.81;;;3.52;75.11
80333;BME280;69652;51.864;-2.246;2024-01-15T03:17:00;101063.44;;;3.53;74.28
80333;BME280;69652;51.864;-2.246;2024-01-15T03:19:26;101060.75;;;3.53;74.20
80333;BME280;69652;51.864;-2.246;2024-01-15T03:21:52;101057.97;;;3.48;74.86
80333;BME280;69652;51.864;-2.246;2024-01-15T03:24:17;101050.41;;;3.45;74.12
80333;BME280;69652;51.864;-2.246;2024-01-15T03:26:43;101051.72;;;3.43;75.43
80333;BME280;69652;51.864;-2.246;2024-01-15T03:29:08;101051.09;;;3.36;75.01
80333;BME280;69652;51.864;-2.246;2024-01-15T03:31:34;101053.47;;;3.32;75.39
80333;BME280;69652;51.864;-2.246;2024-01-15T03:34:00;101055.75;;;3.23;75.57
80333;BME280;69652;51.864;-2.246;2024-01-15T03:36:25;101055.69;;;3.18;75.54
80333;BME280;69652;51.864;-2.246;2024-01-15T03:38:51;101051.78;;;3.09;75.47
80333;BME280;69652;51.864;-2.246;2024-01-15T03:41:16;101050.09;;;3.03;76.52
80333;BME280;69652;51.864;-2.246;2024-01-15T03:43:42;101055.84;;;2.95;76.24
80333;BME280;69652;51.864;-2.246;2024-01-15T03:46:07;101056.50;;;2.85;75.65
80333;BME280;69652;51.864;-2.246;2024-01-15T03:48:33;101060.25;;;2.84;76.60
80333;BME280;69652;51.864;-2.246;2024-01-15T03:50:58;101067.16;;;2.80;76.83
80333;BME280;69652;51.864;-2.246;2024-01-15T03:53:24;101063.34;;;2.76;77.02
80333;BME280;69652;51.864;-2.246;2024-01-15T03:55:50;101060.66;;;2.76;76.13
80333;BME280;69652;51.864;-2.246;2024-01-15T03:58:15;101058.47;;;2.73;77.06
80333;BME280;69652;51.864;-2.246;2024-01-15T04:00:42;101057.91;;;2.71;77.10
80333;BME280;69652;51.864;-2.246;2024-01-15T04:03:07;101050.59;;;2.67;77.09
80333;BME280;69652;51.864;-2.246;2024-01-15T04:05:33;101054.31;;;2.66;77.23
80333;BME280;69652;51.864;-2.246;2024-01-15T04:07:58;101052.63;;;2.60;77.21
80333;BME280;69652;51.864;-2.246;2024-01-15T04:10:24;101047.97;;;2.55;76.82
80333;BME280;69652;51.864;-2.246;2024-01-15T04:12:49;101046.81;;;2.51;77.17
80333;BME280;69652;51.864;-2.246;2024-01-15T04:15:15;101044.38;;;2.49;77.85
80333;BME280;69652;51.864;-2.246;2024-01-15T04:17:41;101043.16;;;2.40;77.43
80333;BME280;69652;51.864;-2.246;2024-01-15T04:20:07;101045.50;;;2.37;77.27
80333;BME280;69652;51.864;-2.246;2024-01-15T04:22:34;101054.34;;;2.37;78.32
80333;BME280;69652;51.864;-2.246;2024-01-15T04:25:00;101051.44;;;2.39;78.74
80333;BME280;69652;51.864;-2.246;2024-01-15T04:27:26;101049.63;;;2.28;77.20
80333;BME280;69652;51.864;-2.246;2024-01-15T04:29:51;101050.44;;;2.28;76.80
80333;BME280;69652;51.864;-2.246;2024-01-15T04:32:18;101054.28;;;2.32;78.29
80333;BME280;69652;51.864;-2.246;2024-01-15T04:34:43;101049.88;;;2.26;77.12
80333;BME280;69652;51.864;-2.246;2024-01-15T04:37:09;101045.00;;;2.23;77.50
80333;BME280;69652;51.864;-2.246;2024-01-15T04:39:34;101047.13;;;2.21;77.57
80333;BME280;69652;51.864;-2.246;2024-01-15T04:42:00;101052.47;;;2.21;77.52
80333;BME280;69652;51.864;-2.246;2024-01-15T04:44:26;101055.84;;;2.16;77.45
80333;BME280;69652;51.864;-2.246;2024-01-15T04:46:51;101061.94;;;2.12;77.65
80333;BME280;69652;51.864;-2.246;2024-01-15T04:49:17;101052.50;;;2.09;77.45
80333;BME280;69652;51.864;-2.246;2024-01-15T04:51:42;101064.34;;;2.13;78.81
80333;BME280;69652;51.864;-2.246;2024-01-15T04:54:08;101059.97;;;2.07;77.68
80333;BME280;69652;51.864;-2.246;2024-01-15T04:56:33;101062.53;;;2.02;78.02
80333;BME280;69652;51.864;-2.246;2024-01-15T04:58:59;101055.81;;;2.00;77.82
80333;BME280;69652;51.864;-2.246;2024-01-15T05:01:24;101057.34;;;1.96;77.80
80333;BME280;69652;51.864;-2.246;2024-01-15T05:03:50;101056.16;;;1.92;78.97
80333;BME280;69652;51.864;-2.246;2024-01-15T05:06:15;101049.44;;;1.89;78.36
80333;BME280;69652;51.864;-2.246;2024-01-15T05:08:41;101044.06;;;1.89;79.15
80333;BME280;69652;51.864;-2.246;2024-01-15T05:11:07;101048.38;;;1.90;79.75
80333;BME280;69652;51.864;-2.246;2024-01-15T05:13:32;101047.47;;;1.85;78.60
80333;BME280;69652;51.864;-2.246;2024-01-15T05:15:58;101044.69;;;1.79;78.89
80333;BME280;69652;51.864;-2.246;2024-01-15T05:18:24;101055.63;;;1.78;79.57
80333;BME280;69652;51.864;-2.246;2024-01-15T05:20:49;101055.31;;;1.74;79.34
80333;BME280;69652;51.864;-2.246;2024-01-15T05:23:15;101048.56;;;1.72;79.04
80333;BME280;69652;51.864;-2.246;2024-01-15T05:25:40;101059.50;;;1.70;80.25
80333;BME280;69652;51.864;-2.246;2024-01-15T05:28:06;101059.50;;;1.70;80.02
80333;BME280;69652;51.864;-2.246;2024-01-15T05:30:31;101060.19;;;1.66;78.32
80333;BME280;69652;51.864;-2.246;2024-01-15T05:32:57;101061.59;;;1.68;79.90
80333;BME280;69652;51.864;-2.246;2024-01-15T05:35:23;101056.97;;;1.64;79.16
80333;BME280;69652;51.864;-2.246;2024-01-15T05:37:48;101057.88;;;1.58;78.71
80333;BME280;69652;51.864;-2.246;2024-01-15T05:40:14;101054.97;;;1.59;80.12
80333;BME280;69652;51.864;-2.246;2024-01-15T05:42:41;101045.56;;;1.57;79.67
80333;BME280;69652;51.864;-2.246;2024-01-15T05:45:07;101048.69;;;1.54;79.42
80333;BME280;69652;51.864;-2.246;2024-01-15T05:47:32;101053.00;;;1.55;79.93
80333;BME280;69652;51.864;-2.246;2024-01-15T05:49:58;101058.34;;;1.55;80.17
80333;BME280;69652;51.864;-2.246;2024-01-15T05:52:24;101058.94;;;1.57;80.24
80333;BME280;69652;51.864;-2.246;2024-01-15T05:54:50;101064.06;;;1.47;79.51
80333;BME280;69652;51.864;-2.246;2024-01-15T05:57:15;101061.88;;;1.43;78.91
80333;BME280;69652;51.864;-2.246;2024-01-15T05:59:42;101072.31;;;1.45;80.24
80333;BME280;69652;51.864;-2.246;2024-01-15T06:02:08;101070.13;;;1.42;79.69
80333;BME280;69652;51.864;-2.246;2024-01-15T06:04:33;101071.41;;;1.39;78.55
80333;BME280;69652;51.864;-2.246;2024-01-15T06:06:59;101073.97;;;1.34;78.62
80333;BME280;69652;51.864;-2.246;2024-01-15T06:09:24;101070.38;;;1.40;79.88
80333;BME280;69652;51.864;-2.246;2024-01-15T06:11:50;101059.78;;;1.34;78.83
80333;BME280;69652;51.864;-2.246;2024-01-15T06:14:15;101053.03;;;1.31;78.63
80333;BME280;69652;51.864;-2.246;2024-01-15T06:16:41;101064.22;;;1.28;78.73
80333;BME280;69652;51.864;-2.246;2024-01-15T06:19:07;101062.59;;;1.27;79.39
80333;BME280;69652;51.864;-2.246;2024-01-15T06:21:32;101066.53;;;1.25;79.15
80333;BME280;69652;51.864;-2.246;2024-01-15T06:23:58;101062.22;;;1.24;79.17
80333;BME280;69652;51.864;-2.246;2024-01-15T06:26:23;101052.34;;;1.24;79.51
80333;BME280;69652;51.864;-2.246;2024-01-15T06:28:50;101048.88;;;1.24;79.35
80333;BME280;69652;51.864;-2.246;2024-01-15T06:31:15;101040.25;;;1.22;79.19
80333;BME280;69652;51.864;-2.246;2024-01-15T06:33:41;101041.06;;;1.22;79.36
80333;BME280;69652;51.864;-2.246;2024-01-15T06:36:07;101045.25;;;1.18;79.19
80333;BME280;69652;51.864;-2.246;2024-01-15T06:38:33;101052.72;;;1.16;79.48
80333;BME280;69652;51.864;-2.246;2024-01-15T06:40:58;101042.47;;;1.13;79.18
80333;BME280;69652;51.864;-2.246;2024-01-15T06:43:24;101050.13;;;1.09;78.96
80333;BME280;69652;51.864;-2.246;2024-01-15T06:45:49;101044.78;;;1.09;78.80
80333;BME280;69652;51.864;-2.246;2024-01-15T06:48:15;101056.75;;;1.07;79.28
80333;BME280;69652;51.864;-2.246;2024-01-15T06:50:44;101066.63;;;1.06;79.13
80333;BME280;69652;51.864;-2.246;2024-01-15T06:53:10;101063.63;;;1.03;78.92
80333;BME280;69652;51.864;-2.246;2024-01-15T06:55:37;101075.47;;;1.07;79.61
80333;BME280;69652;51.864;-2.246;2024-01-15T06:58:03;101076.88;;;1.09;79.44
80333;BME280;69652;51.864;-2.246;2024-01-15T07:00:29;101075.72;;;1.05;79.17
80333;BME280;69652;51.864;-2.246;2024-01-15T07:02:54;101075.00;;;0.98;79.50
80333;BME280;69652;51.864;-2.246;2024-01-15T07:05:23;101082.66;;;0.95;79.72
80333;BME280;69652;51.864;-2.246;2024-01-15T07:07:49;101079.88;;;0.90;79.65
80333;BME280;69652;51.864;-2.246;2024-01-15T07:10:15;101087.09;;;0.89;79.79
80333;BME280;69652;51.864;-2.246;2024-01-15T07:12:44;101077.06;;;0.85;79.82
80333;BME280;69652;51.864;-2.246;2024-01-15T07:15:10;101086.03;;;0.90;79.88
80333;BME280;69652;51.864;-2.246;2024-01-15T07:17:36;101084.41;;;0.89;79.54
80333;BME280;69652;51.864;-2.246;2024-01-15T07:20:06;101075.47;;;0.95;79.27
80333;BME280;69652;51.864;-2.246;2024-01-15T07:22:33;101083.25;;;0.97;78.85
80333;BME280;69652;51.864;-2.246;2024-01-15T07:24:59;101093.25;;;1.01;78.51
80333;BME280;69652;51.864;-2.246;2024-01-15T07:27:24;101106.16;;;1.04;77.88
80333;BME280;69652;51.864;-2.246;2024-01-15T07:29:50;101102.34;;;1.12;77.72
80333;BME280;69652;51.864;-2.246;2024-01-15T07:32:15;101097.44;;;1.21;77.40
80333;BME280;69652;51.864;-2.246;2024-01-15T07:34:41;101093.41;;;1.30;76.81
80333;BME280;69652;51.864;-2.246;2024-01-15T07:37:07;101097.56;;;1.37;76.54
80333;BME280;69652;51.864;-2.246;2024-01-15T07:39:33;101104.09;;;1.41;76.43
80333;BME280;69652;51.864;-2.246;2024-01-15T07:41:58;101102.78;;;1.44;76.54
80333;BME280;69652;51.864;-2.246;2024-01-15T07:44:24;101105.25;;;1.45;76.47
80333;BME280;69652;51.864;-2.246;2024-01-15T07:46:49;101105.38;;;1.51;76.07
80333;BME280;69652;51.864;-2.246;2024-01-15T07:49:15;101104.09;;;1.53;76.45
80333;BME280;69652;51.864;-2.246;2024-01-15T07:51:42;101113.63;;;1.49;75.90
80333;BME280;69652;51.864;-2.246;2024-01-15T07:54:09;101110.34;;;1.47;76.06
80333;BME280;69652;51.864;-2.246;2024-01-15T07:56:55;101122.34;;;1.44;75.40
80333;BME280;69652;51.864;-2.246;2024-01-15T07:59:22;101122.00;;;1.41;76.31
80333;BME280;69652;51.864;-2.246;2024-01-15T08:01:48;101133.25;;;1.43;76.13
80333;BME280;69652;51.864;-2.246;2024-01-15T08:04:14;101137.69;;;1.37;75.63
80333;BME280;69652;51.864;-2.246;2024-01-15T08:06:40;101128.16;;;1.41;76.28
80333;BME280;69652;51.864;-2.246;2024-01-15T08:09:06;101136.19;;;1.41;75.65
80333;BME280;69652;51.864;-2.246;2024-01-15T08:11:32;101137.56;;;1.44;76.00
80333;BME280;69652;51.864;-2.246;2024-01-15T08:13:57;101152.34;;;1.47;75.64
80333;BME280;69652;51.864;-2.246;2024-01-15T08:16:23;101145.50;;;1.51;76.25
80333;BME280;69652;51.864;-2.246;2024-01-15T08:18:50;101148.03;;;1.57;75.63
80333;BME280;69652;51.864;-2.246;2024-01-15T08:21:16;101142.22;;;1.60;74.99
80333;BME280;69652;51.864;-2.246;2024-01-15T08:23:41;101143.13;;;1.66;75.16
80333;BME280;69652;51.864;-2.246;2024-01-15T08:26:07;101144.44;;;1.63;74.60
80333;BME280;69652;51.864;-2.246;2024-01-15T08:28:34;101148.50;;;1.66;75.56
80333;BME280;69652;51.864;-2.246;2024-01-15T08:31:00;101144.66;;;1.73;75.54
80333;BME280;69652;51.864;-2.246;2024-01-15T08:33:25;101147.19;;;1.80;74.77
80333;BME280;69652;51.864;-2.246;2024-01-15T08:35:51;101151.16;;;1.77;75.52
80333;BME280;69652;51.864;-2.246;2024-01-15T08:38:16;101147.78;;;1.70;75.61
80333;BME280;69652;51.864;-2.246;2024-01-15T08:40:42;101157.81;;;1.63;75.24
80333;BME280;69652;51.864;-2.246;2024-01-15T08:43:07;101159.19;;;1.54;75.36
80333;BME280;69652;51.864;-2.246;2024-01-15T08:45:33;101161.75;;;1.49;75.79
80333;BME280;69652;51.864;-2.246;2024-01-15T08:47:58;101171.75;;;1.42;76.02
80333;BME280;69652;51.864;-2.246;2024-01-15T08:50:24;101176.31;;;1.41;75.99
80333;BME280;69652;51.864;-2.246;2024-01-15T08:52:50;101181.31;;;1.38;76.41
80333;BME280;69652;51.864;-2.246;2024-01-15T08:55:15;101186.41;;;1.39;76.14
80333;BME280;69652;51.864;-2.246;2024-01-15T08:57:41;101187.00;;;1.41;76.78
80333;BME280;69652;51.864;-2.246;2024-01-15T09:00:06;101196.19;;;1.45;76.99
80333;BME280;69652;51.864;-2.246;2024-01-15T09:02:35;101193.88;;;1.49;77.12
80333;BME280;69652;51.864;-2.246;2024-01-15T09:05:01;101200.84;;;1.50;76.68
80333;BME280;69652;51.864;-2.246;2024-01-15T09:07:27;101201.19;;;1.54;77.02
80333;BME280;69652;51.864;-2.246;2024-01-15T09:09:53;101210.97;;;1.60;77.16
80333;BME280;69652;51.864;-2.246;2024-01-15T09:12:19;101204.94;;;1.64;76.90
80333;BME280;69652;51.864;-2.246;2024-01-15T09:14:46;101209.69;;;1.74;76.51
80333;BME280;69652;51.864;-2.246;2024-01-15T09:17:12;101215.88;;;1.86;76.92
80333;BME280;69652;51.864;-2.246;2024-01-15T09:19:38;101210.59;;;1.91;76.31
80333;BME280;69652;51.864;-2.246;2024-01-15T09:22:05;101213.75;;;2.00;75.85
80333;BME280;69652;51.864;-2.246;2024-01-15T09:24:31;101217.13;;;2.07;76.64
80333;BME280;69652;51.864;-2.246;2024-01-15T09:26:56;101220.03;;;2.05;75.65
80333;BME280;69652;51.864;-2.246;2024-01-15T09:29:22;101216.31;;;2.06;75.89
80333;BME280;69652;51.864;-2.246;2024-01-15T09:31:49;101225.38;;;2.05;76.18
80333;BME280;69652;51.864;-2.246;2024-01-15T09:34:16;101235.41;;;2.10;76.46
80333;BME280;69652;51.864;-2.246;2024-01-15T09:36:41;101232.50;;;2.11;76.79
80333;BME280;69652;51.864;-2.246;2024-01-15T09:39:08;101239.56;;;2.17;76.74
80333;BME280;69652;51.864;-2.246;2024-01-15T09:41:35;101244.34;;;2.15;76.23
80333;BME280;69652;51.864;-2.246;2024-01-15T09:44:02;101238.28;;;2.20;76.83
80333;BME280;69652;51.864;-2.246;2024-01-15T09:46:28;101232.22;;;2.25;77.48
80333;BME280;69652;51.864;-2.246;2024-01-15T09:48:54;101243.50;;;2.27;76.82
80333;BME280;69652;51.864;-2.246;2024-01-15T09:51:20;101232.09;;;2.31;76.51
80333;BME280;69652;51.864;-2.246;2024-01-15T09:53:47;101250.16;;;2.36;76.29
80333;BME280;69652;51.864;-2.246;2024-01-15T09:56:14;101243.25;;;2.40;76.34
80333;BME280;69652;51.864;-2.246;2024-01-15T09:58:39;101236.28;;;2.39;76.27
80333;BME280;69652;51.864;-2.246;2024-01-15T10:01:08;101248.63;;;2.40;76.79
80333;BME280;69652;51.864;-2.246;2024-01-15T10:03:33;101243.03;;;2.41;76.70
80333;BME280;69652;51.864;-2.246;2024-01-15T10:05:59;101240.47;;;2.46;76.16
80333;BME280;69652;51.864;-2.246;2024-01-15T10:08:25;101239.84;;;2.56;75.98
80333;BME280;69652;51.864;-2.246;2024-01-15T10:10:51;101239.94;;;2.61;76.30
80333;BME280;69652;51.864;-2.246;2024-01-15T10:13:17;101247.75;;;2.63;77.14
80333;BME280;69652;51.864;-2.246;2024-01-15T10:15:46;101237.59;;;2.65;76.03
80333;BME280;69652;51.864;-2.246;2024-01-15T10:18:15;101233.88;;;2.66;76.05
80333;BME280;69652;51.864;-2.246;2024-01-15T10:20:40;101236.31;;;2.67;74.93
80333;BME280;69652;51.864;-2.246;2024-01-15T10:23:07;101234.00;;;2.71;75.50
80333;BME280;69652;51.864;-2.246;2024-01-15T10:25:35;101238.84;;;2.74;75.78
80333;BME280;69652;51.864;-2.246;2024-01-15T10:28:04;101255.50;;;2.76;75.69
80333;BME280;69652;51.864;-2.246;2024-01-15T10:30:31;101258.31;;;2.81;74.96
80333;BME280;69652;51.864;-2.246;2024-01-15T10:33:01;101257.56;;;2.85;74.58
80333;BME280;69652;51.864;-2.246;2024-01-15T10:35:31;101264.09;;;2.89;75.40
80333;BME280;69652;51.864;-2.246;2024-01-15T10:37:58;101264.75;;;2.97;75.36
80333;BME280;69652;51.864;-2.246;2024-01-15T10:40:24;101264.03;;;3.01;74.47
80333;BME280;69652;51.864;-2.246;2024-01-15T10:42:50;101277.28;;;3.08;72.59
80333;BME280;69652;51.864;-2.246;2024-01-15T10:45:16;101269.94;;;3.15;72.40
80333;BME280;69652;51.864;-2.246;2024-01-15T10:47:42;101272.69;;;3.20;73.37
80333;BME280;69652;51.864;-2.246;2024-01-15T10:50:09;101266.03;;;3.22;71.90
80333;BME280;69652;51.864;-2.246;2024-01-15T10:52:36;101269.47;;;3.35;71.30
80333;BME280;69652;51.864;-2.246;2024-01-15T10:55:03;101272.25;;;3.40;67.42
80333;BME280;69652;51.864;-2.246;2024-01-15T10:57:30;101262.41;;;3.45;67.67
80333;BME280;69652;51.864;-2.246;2024-01-15T10:59:56;101264.44;;;3.55;66.01
80333;BME280;69652;51.864;-2.246;2024-01-15T11:02:21;101266.06;;;3.56;67.11
80333;BME280;69652;51.864;-2.246;2024-01-15T11:04:47;101263.25;;;3.62;68.37
80333;BME280;69652;51.864;-2.246;2024-01-15T11:07:14;101267.47;;;3.58;64.24
80333;BME280;69652;51.864;-2.246;2024-01-15T11:09:39;101268.44;;;3.52;63.63
80333;BME280;69652;51.864;-2.246;2024-01-15T11:12:13;101273.63;;;3.42;63.01
80333;BME280;69652;51.864;-2.246;2024-01-15T11:14:46;101273.53;;;3.37;64.33
80333;BME280;69652;51.864;-2.246;2024-01-15T11:17:12;101272.72;;;3.37;65.39
80333;BME280;69652;51.864;-2.246;2024-01-15T11:19:43;101280.81;;;3.53;63.84
80333;BME280;69652;51.864;-2.246;2024-01-15T11:22:10;101280.16;;;3.63;64.22
80333;BME280;69652;51.864;-2.246;2024-01-15T11:24:55;101286.50;;;3.74;62.26
80333;BME280;69652;51.864;-2.246;2024-01-15T11:27:48;101279.56;;;3.94;61.03
80333;BME280;69652;51.864;-2.246;2024-01-15T11:30:17;101277.13;;;3.93;60.10
80333;BME280;69652;51.864;-2.246;2024-01-15T11:32:43;101280.09;;;4.30;58.79
80333;BME280;69652;51.864;-2.246;2024-01-15T11:35:15;101276.84;;;4.50;57.57
80333;BME280;69652;51.864;-2.246;2024-01-15T11:43:02;101273.09;;;5.21;54.83
80333;BME280;69652;51.864;-2.246;2024-01-15T11:45:30;101272.41;;;5.31;54.19
80333;BME280;69652;51.864;-2.246;2024-01-15T11:48:09;101271.38;;;5.37;55.15
80333;BME280;69652;51.864;-2.246;2024-01-15T11:50:49;101278.31;;;5.92;54.68
80333;BME280;69652;51.864;-2.246;2024-01-15T11:55:57;101281.00;;;6.91;51.56
80333;BME280;69652;51.864;-2.246;2024-01-15T11:58:23;101285.53;;;6.70;47.88
80333;BME280;69652;51.864;-2.246;2024-01-15T12:00:51;101278.44;;;7.67;46.18
80333;BME280;69652;51.864;-2.246;2024-01-15T12:03:20;101271.81;;;9.19;41.93
80333;BME280;69652;51.864;-2.246;2024-01-15T12:05:46;101276.38;;;10.49;38.85
80333;BME280;69652;51.864;-2.246;2024-01-15T12:08:11;101271.06;;;11.43;37.61
80333;BME280;69652;51.864;-2.246;2024-01-15T12:10:38;101263.06;;;11.84;36.59
80333;BME280;69652;51.864;-2.246;2024-01-15T12:13:13;101261.88;;;11.90;33.84
80333;BME280;69652;51.864;-2.246;2024-01-15T12:15:40;101260.56;;;11.87;33.86
80333;BME280;69652;51.864;-2.246;2024-01-15T12:18:12;101257.16;;;11.44;32.75
80333;BME280;69652;51.864;-2.246;2024-01-15T12:20:39;101250.03;;;12.41;31.13
80333;BME280;69652;51.864;-2.246;2024-01-15T12:23:04;101251.09;;;12.94;31.78
80333;BME280;69652;51.864;-2.246;2024-01-15T12:25:31;101244.44;;;13.59;30.69
80333;BME280;69652;51.864;-2.246;2024-01-15T12:27:58;101249.25;;;13.84;29.90
80333;BME280;69652;51.864;-2.246;2024-01-15T12:30:26;101246.28;;;13.72;30.04
80333;BME280;69652;51.864;-2.246;2024-01-15T12:32:52;101246.47;;;13.76;28.98
80333;BME280;69652;51.864;-2.246;2024-01-15T12:35:18;101247.91;;;13.28;29.04
80333;BME280;69652;51.864;-2.246;2024-01-15T12:37:44;101244.78;;;12.30;33.06
80333;BME280;69652;51.864;-2.246;2024-01-15T12:40:12;101230.75;;;13.28;30.22
80333;BME280;69652;51.864;-2.246;2024-01-15T12:42:41;101226.59;;;13.53;29.92
80333;BME280;69652;51.864;-2.246;2024-01-15T12:45:09;101223.75;;;13.89;28.13
80333;BME280;69652;51.864;-2.246;2024-01-15T12:47:36;101234.44;;;14.07;29.18
80333;BME280;69652;51.864;-2.246;2024-01-15T12:50:02;101236.94;;;14.26;29.80
80333;BME280;69652;51.864;-2.246;2024-01-15T12:52:28;101240.50;;;14.35;28.13
80333;BME280;69652;51.864;-2.246;2024-01-15T12:54:54;101241.34;;;15.27;26.29